sensor_id;sensor_type;location;lat;lon;timestamp;pressure;altitude;pressure_sealevel;temperature;humidity
8320;BME280;4197;42.130;24.746;2022-12-18T00:00:04;100114.06;;;9.00;100.00
8320;BME280;4197;42.130;24.746;2022-12-18T00:02:34;100100.53;;;9.00;100.00
8320;BME280;4197;42.130;24.746;2022-12-18T00:05:02;100095.78;;;8.97;100.00
8320;BME280;4197;42.130;24.746;2022-12-18T00:07:31;100107.25;;;8.93;100.00
8320;BME280;4197;42.130;24.746;2022-12-18T00:09:59;100118.88;;;8.94;100.00
8320;BME280;4197;42.130;24.746;2022-12-18T00:12:27;100133.13;;;9.03;100.00
8320;BME280;4197;42.130;24.746;2022-12-18T00:14:56;100135.88;;;8.94;100.00
8320;BME280;4197;42.130;24.746;2022-12-18T00:17:24;100141.81;;;8.88;100.00
8320;BME280;4197;42.130;24.746;2022-12-18T00:19:53;100160.13;;;8.82;100.00
8320;BME280;4197;42.130;24.746;2022-12-18T00:22:22;100164.53;;;8.96;100.00
8320;BME280;4197;42.130;24.746;2022-12-18T00:24:50;100155.44;;;9.00;100.00
8320;BME280;4197;42.130;24.746;2022-12-18T00:27:18;100166.28;;;8.91;100.00
8320;BME280;4197;42.130;24.746;2022-12-18T00:29:47;100167.75;;;8.89;100.00
8320;BME280;4197;42.130;24.746;2022-12-18T00:32:16;100165.69;;;8.86;100.00
8320;BME280;4197;42.130;24.746;2022-12-18T00:34:44;100159.34;;;8.82;100.00
8320;BME280;4197;42.130;24.746;2022-12-18T00:37:14;100163.66;;;8.74;100.00
8320;BME280;4197;42.130;24.746;2022-12-18T00:39:48;100176.22;;;8.70;100.00
8320;BME280;4197;42.130;24.746;2022-12-18T00:42:16;100178.00;;;8.66;100.00
8320;BME280;4197;42.130;24.746;2022-12-18T00:45:02;100184.84;;;8.63;100.00
8320;BME280;4197;42.130;24.746;2022-12-18T00:47:37;100189.47;;;8.63;100.00
8320;BME280;4197;42.130;24.746;2022-12-18T00:50:07;100197.59;;;8.63;100.00
8320;BME280;4197;42.130;24.746;2022-12-18T00:52:37;100199.16;;;8.64;100.00
8320;BME280;4197;42.130;24.746;2022-12-18T00:55:05;100201.88;;;8.64;100.00
8320;BME280;4197;42.130;24.746;2022-12-18T00:57:34;100201.72;;;8.60;100.00
8320;BME280;4197;42.130;24.746;2022-12-18T01:00:03;100197.59;;;8.54;100.00
8320;BME280;4197;42.130;24.746;2022-12-18T01:02:31;100191.56;;;8.48;100.00
8320;BME280;4197;42.130;24.746;2022-12-18T01:05:00;100194.44;;;8.43;100.00
8320;BME280;4197;42.130;24.746;2022-12-18T01:07:28;100196.19;;;8.39;100.00
8320;BME280;4197;42.130;24.746;2022-12-18T01:09:58;100197.44;;;8.33;100.00
8320;BME280;4197;42.130;24.746;2022-12-18T01:12:26;100199.66;;;8.31;100.00
8320;BME280;4197;42.130;24.746;2022-12-18T01:14:54;100189.34;;;8.24;100.00
8320;BME280;4197;42.130;24.746;2022-12-18T01:17:22;100191.25;;;8.24;100.00
8320;BME280;4197;42.130;24.746;2022-12-18T01:19:50;100184.09;;;8.19;100.00
8320;BME280;4197;42.130;24.746;2022-12-18T01:22:19;100183.63;;;8.17;100.00
8320;BME280;4197;42.130;24.746;2022-12-18T01:24:47;100193.81;;;8.20;100.00
8320;BME280;4197;42.130;24.746;2022-12-18T01:27:16;100192.06;;;8.24;100.00
8320;BME280;4197;42.130;24.746;2022-12-18T01:29:44;100194.59;;;8.21;100.00
8320;BME280;4197;42.130;24.746;2022-12-18T01:32:12;100185.22;;;8.18;100.00
8320;BME280;4197;42.130;24.746;2022-12-18T01:34:40;100190.94;;;8.17;100.00
8320;BME280;4197;42.130;24.746;2022-12-18T01:37:09;100182.84;;;8.17;100.00
8320;BME280;4197;42.130;24.746;2022-12-18T01:39:37;100196.03;;;8.18;100.00
8320;BME280;4197;42.130;24.746;2022-12-18T01:42:12;100191.56;;;8.22;100.00
8320;BME280;4197;42.130;24.746;2022-12-18T01:45:06;100188.06;;;8.22;100.00
8320;BME280;4197;42.130;24.746;2022-12-18T01:47:37;100193.47;;;8.22;100.00
8320;BME280;4197;42.130;24.746;2022-12-18T01:50:09;100189.03;;;8.26;100.00
8320;BME280;4197;42.130;24.746;2022-12-18T01:52:39;100187.91;;;8.27;100.00
8320;BME280;4197;42.130;24.746;2022-12-18T01:55:09;100193.00;;;8.37;100.00
8320;BME280;4197;42.130;24.746;2022-12-18T01:57:38;100184.41;;;8.53;100.00
8320;BME280;4197;42.130;24.746;2022-12-18T02:00:12;100185.44;;;8.78;100.00
8320;BME280;4197;42.130;24.746;2022-12-18T02:02:41;100189.56;;;8.84;100.00
8320;BME280;4197;42.130;24.746;2022-12-18T02:05:11;100203.84;;;8.93;100.00
8320;BME280;4197;42.130;24.746;2022-12-18T02:07:45;100207.81;;;8.96;100.00
8320;BME280;4197;42.130;24.746;2022-12-18T02:10:20;100209.38;;;9.05;100.00
8320;BME280;4197;42.130;24.746;2022-12-18T02:12:56;100211.75;;;9.07;100.00
8320;BME280;4197;42.130;24.746;2022-12-18T02:15:35;100206.34;;;9.07;100.00
8320;BME280;4197;42.130;24.746;2022-12-18T02:18:07;100211.09;;;9.10;100.00
8320;BME280;4197;42.130;24.746;2022-12-18T02:20:45;100212.69;;;9.11;100.00
8320;BME280;4197;42.130;24.746;2022-12-18T02:23:23;100225.72;;;9.09;100.00
8320;BME280;4197;42.130;24.746;2022-12-18T02:26:10;100220.31;;;9.18;100.00
8320;BME280;4197;42.130;24.746;2022-12-18T02:28:45;100230.31;;;9.17;100.00
8320;BME280;4197;42.130;24.746;2022-12-18T02:31:16;100227.16;;;9.15;100.00
8320;BME280;4197;42.130;24.746;2022-12-18T02:33:48;100220.81;;;9.11;100.00
8320;BME280;4197;42.130;24.746;2022-12-18T02:36:18;100218.53;;;9.22;100.00
8320;BME280;4197;42.130;24.746;2022-12-18T02:38:48;100212.00;;;9.23;100.00
8320;BME280;4197;42.130;24.746;2022-12-18T02:41:20;100209.63;;;9.21;100.00
8320;BME280;4197;42.130;24.746;2022-12-18T02:43:49;100220.44;;;9.21;100.00
8320;BME280;4197;42.130;24.746;2022-12-18T02:46:27;100213.91;;;9.22;100.00
8320;BME280;4197;42.130;24.746;2022-12-18T02:49:04;100208.03;;;9.20;100.00
8320;BME280;4197;42.130;24.746;2022-12-18T02:51:40;100209.31;;;9.14;100.00
8320;BME280;4197;42.130;24.746;2022-12-18T02:54:19;100210.44;;;9.13;100.00
8320;BME280;4197;42.130;24.746;2022-12-18T02:56:53;100215.13;;;9.04;100.00
8320;BME280;4197;42.130;24.746;2022-12-18T02:59:26;100209.69;;;9.04;100.00
8320;BME280;4197;42.130;24.746;2022-12-18T03:02:01;100216.81;;;9.08;100.00
8320;BME280;4197;42.130;24.746;2022-12-18T03:04:35;100217.63;;;9.09;100.00
8320;BME280;4197;42.130;24.746;2022-12-18T03:07:10;100221.13;;;9.09;100.00
8320;BME280;4197;42.130;24.746;2022-12-18T03:09:43;100226.38;;;9.06;100.00
8320;BME280;4197;42.130;24.746;2022-12-18T03:12:17;100219.09;;;9.06;100.00
8320;BME280;4197;42.130;24.746;2022-12-18T03:14:55;100222.28;;;9.00;100.00
8320;BME280;4197;42.130;24.746;2022-12-18T03:17:27;100224.19;;;8.99;100.00
8320;BME280;4197;42.130;24.746;2022-12-18T03:20:00;100230.53;;;9.03;100.00
8320;BME280;4197;42.130;24.746;2022-12-18T03:22:32;100232.13;;;9.04;100.00
8320;BME280;4197;42.130;24.746;2022-12-18T03:25:03;100232.75;;;9.10;100.00
8320;BME280;4197;42.130;24.746;2022-12-18T03:27:36;100235.31;;;9.06;100.00
8320;BME280;4197;42.130;24.746;2022-12-18T03:30:07;100230.69;;;9.07;100.00
8320;BME280;4197;42.130;24.746;2022-12-18T03:32:39;100232.28;;;9.08;100.00
8320;BME280;4197;42.130;24.746;2022-12-18T03:35:10;100237.69;;;9.08;100.00
8320;BME280;4197;42.130;24.746;2022-12-18T03:37:41;100239.25;;;9.09;100.00
8320;BME280;4197;42.130;24.746;2022-12-18T03:40:09;100246.09;;;9.15;100.00
8320;BME280;4197;42.130;24.746;2022-12-18T03:42:44;100252.16;;;9.12;100.00
8320;BME280;4197;42.130;24.746;2022-12-18T03:45:20;100262.53;;;9.01;100.00
8320;BME280;4197;42.130;24.746;2022-12-18T03:47:59;100274.50;;;8.91;100.00
8320;BME280;4197;42.130;24.746;2022-12-18T03:50:36;100274.66;;;8.86;100.00
8320;BME280;4197;42.130;24.746;2022-12-18T03:53:18;100275.31;;;8.83;100.00
8320;BME280;4197;42.130;24.746;2022-12-18T03:55:51;100282.47;;;8.79;100.00
8320;BME280;4197;42.130;24.746;2022-12-18T03:58:24;100288.38;;;8.81;100.00
8320;BME280;4197;42.130;24.746;2022-12-18T04:00:56;100294.66;;;9.03;100.00
8320;BME280;4197;42.130;24.746;2022-12-18T04:03:25;100285.25;;;9.09;100.00
8320;BME280;4197;42.130;24.746;2022-12-18T04:05:55;100286.88;;;9.10;100.00
8320;BME280;4197;42.130;24.746;2022-12-18T04:08:25;100284.59;;;9.21;100.00
8320;BME280;4197;42.130;24.746;2022-12-18T04:10:54;100295.44;;;9.21;100.00
8320;BME280;4197;42.130;24.746;2022-12-18T04:13:24;100301.78;;;9.25;100.00
8320;BME280;4197;42.130;24.746;2022-12-18T04:15:52;100300.50;;;9.22;100.00
8320;BME280;4197;42.130;24.746;2022-12-18T04:18:21;100301.63;;;9.21;100.00
8320;BME280;4197;42.130;24.746;2022-12-18T04:20:49;100292.56;;;9.26;100.00
8320;BME280;4197;42.130;24.746;2022-12-18T04:23:17;100299.84;;;9.25;100.00
8320;BME280;4197;42.130;24.746;2022-12-18T04:25:46;100306.41;;;9.24;100.00
8320;BME280;4197;42.130;24.746;2022-12-18T04:28:14;100304.00;;;9.23;100.00
8320;BME280;4197;42.130;24.746;2022-12-18T04:30:43;100308.31;;;9.24;100.00
8320;BME280;4197;42.130;24.746;2022-12-18T04:33:19;100316.75;;;9.22;100.00
8320;BME280;4197;42.130;24.746;2022-12-18T04:35:47;100315.81;;;9.18;100.00
8320;BME280;4197;42.130;24.746;2022-12-18T04:38:15;100324.72;;;9.19;100.00
8320;BME280;4197;42.130;24.746;2022-12-18T04:40:43;100321.88;;;9.15;100.00
8320;BME280;4197;42.130;24.746;2022-12-18T04:43:11;100317.72;;;9.09;100.00
8320;BME280;4197;42.130;24.746;2022-12-18T04:45:40;100330.31;;;9.05;100.00
8320;BME280;4197;42.130;24.746;2022-12-18T04:48:09;100331.13;;;8.97;100.00
8320;BME280;4197;42.130;24.746;2022-12-18T04:50:38;100337.34;;;8.97;100.00
8320;BME280;4197;42.130;24.746;2022-12-18T04:53:06;100349.75;;;8.98;100.00
8320;BME280;4197;42.130;24.746;2022-12-18T04:55:35;100354.34;;;8.98;100.00
8320;BME280;4197;42.130;24.746;2022-12-18T04:58:04;100353.06;;;8.95;100.00
8320;BME280;4197;42.130;24.746;2022-12-18T05:00:32;100362.00;;;8.96;100.00
8320;BME280;4197;42.130;24.746;2022-12-18T05:03:01;100364.88;;;8.90;100.00
8320;BME280;4197;42.130;24.746;2022-12-18T05:05:31;100363.09;;;8.94;100.00
8320;BME280;4197;42.130;24.746;2022-12-18T05:07:59;100371.38;;;8.89;100.00
8320;BME280;4197;42.130;24.746;2022-12-18T05:10:28;100380.47;;;8.85;100.00
8320;BME280;4197;42.130;24.746;2022-12-18T05:13:03;100376.16;;;8.84;100.00
8320;BME280;4197;42.130;24.746;2022-12-18T05:15:32;100382.06;;;8.86;100.00
8320;BME280;4197;42.130;24.746;2022-12-18T05:18:01;100382.84;;;8.86;100.00
8320;BME280;4197;42.130;24.746;2022-12-18T05:20:31;100382.19;;;8.89;100.00
8320;BME280;4197;42.130;24.746;2022-12-18T05:22:59;100392.22;;;8.89;100.00
8320;BME280;4197;42.130;24.746;2022-12-18T05:25:28;100393.84;;;8.90;100.00
8320;BME280;4197;42.130;24.746;2022-12-18T05:27:56;100402.59;;;8.96;100.00
8320;BME280;4197;42.130;24.746;2022-12-18T05:30:25;100415.63;;;8.93;100.00
8320;BME280;4197;42.130;24.746;2022-12-18T05:32:54;100418.47;;;8.97;100.00
8320;BME280;4197;42.130;24.746;2022-12-18T05:35:22;100427.38;;;8.98;100.00
8320;BME280;4197;42.130;24.746;2022-12-18T05:37:51;100421.69;;;8.99;100.00
8320;BME280;4197;42.130;24.746;2022-12-18T05:40:19;100426.78;;;9.01;100.00
8320;BME280;4197;42.130;24.746;2022-12-18T05:42:47;100425.97;;;9.00;100.00
8320;BME280;4197;42.130;24.746;2022-12-18T05:45:16;100434.72;;;8.97;100.00
8320;BME280;4197;42.130;24.746;2022-12-18T05:47:44;100438.22;;;8.98;100.00
8320;BME280;4197;42.130;24.746;2022-12-18T05:50:12;100440.63;;;8.99;100.00
8320;BME280;4197;42.130;24.746;2022-12-18T05:52:40;100454.94;;;9.00;100.00
8320;BME280;4197;42.130;24.746;2022-12-18T05:55:10;100455.41;;;9.02;100.00
8320;BME280;4197;42.130;24.746;2022-12-18T05:57:38;100452.38;;;9.03;100.00
8320;BME280;4197;42.130;24.746;2022-12-18T06:00:07;100455.56;;;9.05;100.00
8320;BME280;4197;42.130;24.746;2022-12-18T06:02:35;100457.63;;;9.08;100.00
8320;BME280;4197;42.130;24.746;2022-12-18T06:05:05;100463.03;;;9.08;100.00
8320;BME280;4197;42.130;24.746;2022-12-18T06:07:33;100464.00;;;9.12;100.00
8320;BME280;4197;42.130;24.746;2022-12-18T06:10:01;100463.22;;;9.12;100.00
8320;BME280;4197;42.130;24.746;2022-12-18T06:12:31;100463.69;;;9.14;100.00
8320;BME280;4197;42.130;24.746;2022-12-18T06:15:00;100474.69;;;9.18;100.00
8320;BME280;4197;42.130;24.746;2022-12-18T06:17:28;100472.13;;;9.21;100.00
8320;BME280;4197;42.130;24.746;2022-12-18T06:19:57;100478.31;;;9.22;100.00
8320;BME280;4197;42.130;24.746;2022-12-18T06:22:25;100478.81;;;9.24;100.00
8320;BME280;4197;42.130;24.746;2022-12-18T06:24:53;100483.88;;;9.25;100.00
8320;BME280;4197;42.130;24.746;2022-12-18T06:27:21;100492.19;;;9.29;100.00
8320;BME280;4197;42.130;24.746;2022-12-18T06:29:51;100494.56;;;9.30;100.00
8320;BME280;4197;42.130;24.746;2022-12-18T06:32:19;100496.78;;;9.37;100.00
8320;BME280;4197;42.130;24.746;2022-12-18T06:34:47;100505.22;;;9.35;100.00
8320;BME280;4197;42.130;24.746;2022-12-18T06:37:16;100503.81;;;9.29;100.00
8320;BME280;4197;42.130;24.746;2022-12-18T06:39:44;100508.91;;;9.40;100.00
8320;BME280;4197;42.130;24.746;2022-12-18T06:42:12;100518.91;;;9.39;100.00
8320;BME280;4197;42.130;24.746;2022-12-18T06:44:41;100526.88;;;9.35;100.00
8320;BME280;4197;42.130;24.746;2022-12-18T06:47:10;100528.31;;;9.42;100.00
8320;BME280;4197;42.130;24.746;2022-12-18T06:49:39;100533.06;;;9.45;100.00
8320;BME280;4197;42.130;24.746;2022-12-18T06:52:07;100534.69;;;9.46;100.00
8320;BME280;4197;42.130;24.746;2022-12-18T06:54:36;100538.50;;;9.45;100.00
8320;BME280;4197;42.130;24.746;2022-12-18T06:57:04;100540.75;;;9.43;100.00
8320;BME280;4197;42.130;24.746;2022-12-18T06:59:33;100544.25;;;9.43;100.00
8320;BME280;4197;42.130;24.746;2022-12-18T07:02:01;100555.06;;;9.52;100.00
8320;BME280;4197;42.130;24.746;2022-12-18T07:04:31;100553.47;;;9.51;100.00
8320;BME280;4197;42.130;24.746;2022-12-18T07:06:59;100557.28;;;9.50;100.00
8320;BME280;4197;42.130;24.746;2022-12-18T07:09:27;100558.72;;;9.47;100.00
8320;BME280;4197;42.130;24.746;2022-12-18T07:11:57;100565.09;;;9.51;100.00
8320;BME280;4197;42.130;24.746;2022-12-18T07:14:25;100556.84;;;9.48;100.00
8320;BME280;4197;42.130;24.746;2022-12-18T07:16:53;100563.84;;;9.49;100.00
8320;BME280;4197;42.130;24.746;2022-12-18T07:19:23;100559.53;;;9.48;100.00
8320;BME280;4197;42.130;24.746;2022-12-18T07:21:53;100558.56;;;9.52;100.00
8320;BME280;4197;42.130;24.746;2022-12-18T07:24:21;100566.69;;;9.52;100.00
8320;BME280;4197;42.130;24.746;2022-12-18T07:26:49;100569.09;;;9.54;100.00
8320;BME280;4197;42.130;24.746;2022-12-18T07:29:17;100570.66;;;9.55;100.00
8320;BME280;4197;42.130;24.746;2022-12-18T07:31:45;100582.13;;;9.52;100.00
8320;BME280;4197;42.130;24.746;2022-12-18T07:34:14;100578.94;;;9.50;100.00
8320;BME280;4197;42.130;24.746;2022-12-18T07:36:42;100583.56;;;9.49;100.00
8320;BME280;4197;42.130;24.746;2022-12-18T07:39:12;100590.56;;;9.50;100.00
8320;BME280;4197;42.130;24.746;2022-12-18T07:41:40;100581.34;;;9.51;100.00
8320;BME280;4197;42.130;24.746;2022-12-18T07:44:13;100585.63;;;9.52;100.00
8320;BME280;4197;42.130;24.746;2022-12-18T07:46:41;100583.41;;;9.46;100.00
8320;BME280;4197;42.130;24.746;2022-12-18T07:49:09;100593.13;;;9.47;100.00
8320;BME280;4197;42.130;24.746;2022-12-18T07:51:37;100596.31;;;9.49;100.00
8320;BME280;4197;42.130;24.746;2022-12-18T07:54:05;100596.00;;;9.50;100.00
8320;BME280;4197;42.130;24.746;2022-12-18T07:56:35;100604.59;;;9.52;100.00
8320;BME280;4197;42.130;24.746;2022-12-18T07:59:03;100610.97;;;9.56;100.00
8320;BME280;4197;42.130;24.746;2022-12-18T08:01:31;100610.66;;;9.58;100.00
8320;BME280;4197;42.130;24.746;2022-12-18T08:03:59;100620.38;;;9.59;100.00
8320;BME280;4197;42.130;24.746;2022-12-18T08:06:27;100622.44;;;9.62;100.00
8320;BME280;4197;42.130;24.746;2022-12-18T08:08:56;100628.97;;;9.61;100.00
8320;BME280;4197;42.130;24.746;2022-12-18T08:11:26;100627.72;;;9.67;100.00
8320;BME280;4197;42.130;24.746;2022-12-18T08:13:57;100634.06;;;9.71;100.00
8320;BME280;4197;42.130;24.746;2022-12-18T08:16:25;100630.56;;;9.71;100.00
8320;BME280;4197;42.130;24.746;2022-12-18T08:18:54;100638.22;;;9.77;100.00
8320;BME280;4197;42.130;24.746;2022-12-18T08:21:23;100642.19;;;9.80;100.00
8320;BME280;4197;42.130;24.746;2022-12-18T08:23:54;100648.09;;;9.82;100.00
8320;BME280;4197;42.130;24.746;2022-12-18T08:26:23;100659.41;;;9.84;100.00
8320;BME280;4197;42.130;24.746;2022-12-18T08:28:53;100651.75;;;9.86;100.00
8320;BME280;4197;42.130;24.746;2022-12-18T08:31:24;100655.88;;;9.83;100.00
8320;BME280;4197;42.130;24.746;2022-12-18T08:33:53;100648.72;;;9.88;100.00
8320;BME280;4197;42.130;24.746;2022-12-18T08:36:22;100649.22;;;9.90;100.00
8320;BME280;4197;42.130;24.746;2022-12-18T08:38:52;100646.19;;;9.82;100.00
8320;BME280;4197;42.130;24.746;2022-12-18T08:41:20;100647.31;;;9.90;100.00
8320;BME280;4197;42.130;24.746;2022-12-18T08:43:49;100644.09;;;9.97;100.00
8320;BME280;4197;42.130;24.746;2022-12-18T08:46:37;100641.56;;;10.00;100.00
8320;BME280;4197;42.130;24.746;2022-12-18T08:49:07;100644.28;;;10.00;100.00
8320;BME280;4197;42.130;24.746;2022-12-18T08:51:36;100638.34;;;10.07;100.00
8320;BME280;4197;42.130;24.746;2022-12-18T08:54:05;100636.91;;;10.10;100.00
8320;BME280;4197;42.130;24.746;2022-12-18T08:56:33;100640.41;;;10.10;100.00
8320;BME280;4197;42.130;24.746;2022-12-18T08:59:01;100626.84;;;10.19;100.00
8320;BME280;4197;42.130;24.746;2022-12-18T09:01:31;100630.19;;;10.24;100.00
8320;BME280;4197;42.130;24.746;2022-12-18T09:04:01;100629.88;;;10.26;100.00
8320;BME280;4197;42.130;24.746;2022-12-18T09:06:30;100623.50;;;10.31;100.00
8320;BME280;4197;42.130;24.746;2022-12-18T09:08:58;100635.59;;;10.42;100.00
8320;BME280;4197;42.130;24.746;2022-12-18T09:11:28;100630.34;;;10.45;100.00
8320;BME280;4197;42.130;24.746;2022-12-18T09:13:58;100625.69;;;10.46;100.00
8320;BME280;4197;42.130;24.746;2022-12-18T09:16:28;100629.06;;;10.43;100.00
8320;BME280;4197;42.130;24.746;2022-12-18T09:18:58;100638.50;;;10.37;100.00
8320;BME280;4197;42.130;24.746;2022-12-18T09:21:30;100636.88;;;10.36;100.00
8320;BME280;4197;42.130;24.746;2022-12-18T09:24:01;100637.22;;;10.34;100.00
8320;BME280;4197;42.130;24.746;2022-12-18T09:26:30;100639.94;;;10.34;100.00
8320;BME280;4197;42.130;24.746;2022-12-18T09:28:58;100630.84;;;10.30;100.00
8320;BME280;4197;42.130;24.746;2022-12-18T09:31:27;100639.44;;;10.23;100.00
8320;BME280;4197;42.130;24.746;2022-12-18T09:33:55;100634.81;;;10.24;100.00
8320;BME280;4197;42.130;24.746;2022-12-18T09:36:23;100641.03;;;10.24;100.00
8320;BME280;4197;42.130;24.746;2022-12-18T09:38:52;100633.88;;;10.29;100.00
8320;BME280;4197;42.130;24.746;2022-12-18T09:41:40;100641.19;;;10.28;100.00
8320;BME280;4197;42.130;24.746;2022-12-18T09:44:27;100645.84;;;10.27;100.00
8320;BME280;4197;42.130;24.746;2022-12-18T09:47:09;100635.00;;;10.27;100.00
8320;BME280;4197;42.130;24.746;2022-12-18T09:49:42;100634.19;;;10.27;100.00
8320;BME280;4197;42.130;24.746;2022-12-18T09:52:16;100634.03;;;10.23;100.00
8320;BME280;4197;42.130;24.746;2022-12-18T09:54:50;100639.31;;;10.29;100.00
8320;BME280;4197;42.130;24.746;2022-12-18T09:57:21;100639.63;;;10.27;100.00
8320;BME280;4197;42.130;24.746;2022-12-18T09:59:53;100636.59;;;10.29;100.00
8320;BME280;4197;42.130;24.746;2022-12-18T10:02:24;100635.16;;;10.31;100.00
8320;BME280;4197;42.130;24.746;2022-12-18T10:05:02;100632.91;;;10.33;100.00
8320;BME280;4197;42.130;24.746;2022-12-18T10:07:38;100635.78;;;10.37;100.00
8320;BME280;4197;42.130;24.746;2022-12-18T10:10:19;100640.06;;;10.38;100.00
8320;BME280;4197;42.130;24.746;2022-12-18T10:12:56;100634.47;;;10.43;100.00
8320;BME280;4197;42.130;24.746;2022-12-18T10:15:35;100639.44;;;10.41;100.00
8320;BME280;4197;42.130;24.746;2022-12-18T10:18:14;100635.78;;;10.37;100.00
8320;BME280;4197;42.130;24.746;2022-12-18T10:20:50;100638.81;;;10.35;100.00
8320;BME280;4197;42.130;24.746;2022-12-18T10:23:26;100637.53;;;10.33;100.00
8320;BME280;4197;42.130;24.746;2022-12-18T10:26:02;100640.91;;;10.30;100.00
8320;BME280;4197;42.130;24.746;2022-12-18T10:28:32;100635.16;;;10.31;100.00
8320;BME280;4197;42.130;24.746;2022-12-18T10:31:01;100638.31;;;10.33;100.00
8320;BME280;4197;42.130;24.746;2022-12-18T10:33:30;100640.25;;;10.33;100.00
8320;BME280;4197;42.130;24.746;2022-12-18T10:35:59;100640.91;;;10.30;100.00
8320;BME280;4197;42.130;24.746;2022-12-18T10:38:29;100638.97;;;10.30;100.00
8320;BME280;4197;42.130;24.746;2022-12-18T10:41:01;100654.44;;;10.30;100.00
8320;BME280;4197;42.130;24.746;2022-12-18T10:43:31;100657.28;;;10.24;100.00
8320;BME280;4197;42.130;24.746;2022-12-18T10:46:11;100647.88;;;10.22;100.00
8320;BME280;4197;42.130;24.746;2022-12-18T10:48:50;100661.44;;;10.22;100.00
8320;BME280;4197;42.130;24.746;2022-12-18T10:51:20;100662.72;;;10.24;100.00
8320;BME280;4197;42.130;24.746;2022-12-18T10:53:55;100668.31;;;10.28;100.00
8320;BME280;4197;42.130;24.746;2022-12-18T10:56:27;100668.00;;;10.30;100.00
8320;BME280;4197;42.130;24.746;2022-12-18T10:58:59;100671.03;;;10.28;100.00
8320;BME280;4197;42.130;24.746;2022-12-18T11:01:28;100677.56;;;10.18;100.00
8320;BME280;4197;42.130;24.746;2022-12-18T11:04:00;100674.88;;;10.10;100.00
8320;BME280;4197;42.130;24.746;2022-12-18T11:06:29;100672.78;;;10.07;100.00
8320;BME280;4197;42.130;24.746;2022-12-18T11:08:59;100673.25;;;10.00;100.00
8320;BME280;4197;42.130;24.746;2022-12-18T11:11:34;100680.91;;;9.89;100.00
8320;BME280;4197;42.130;24.746;2022-12-18T11:14:04;100692.72;;;9.85;100.00
8320;BME280;4197;42.130;24.746;2022-12-18T11:16:36;100695.72;;;9.83;100.00
8320;BME280;4197;42.130;24.746;2022-12-18T11:19:19;100696.53;;;9.75;100.00
8320;BME280;4197;42.130;24.746;2022-12-18T11:21:49;100694.31;;;9.68;100.00
8320;BME280;4197;42.130;24.746;2022-12-18T11:24:25;100693.00;;;9.57;100.00
8320;BME280;4197;42.130;24.746;2022-12-18T11:26:57;100697.44;;;9.53;100.00
8320;BME280;4197;42.130;24.746;2022-12-18T11:29:32;100701.44;;;9.47;100.00
8320;BME280;4197;42.130;24.746;2022-12-18T11:35:15;100687.72;;;9.34;100.00
8320;BME280;4197;42.130;24.746;2022-12-18T11:37:48;100698.84;;;9.33;100.00
8320;BME280;4197;42.130;24.746;2022-12-18T11:40:20;100699.63;;;9.33;100.00
8320;BME280;4197;42.130;24.746;2022-12-18T11:42:55;100694.09;;;9.38;100.00
8320;BME280;4197;42.130;24.746;2022-12-18T11:45:28;100694.56;;;9.41;100.00
8320;BME280;4197;42.130;24.746;2022-12-18T11:48:02;100693.31;;;9.47;100.00
8320;BME280;4197;42.130;24.746;2022-12-18T11:50:47;100688.88;;;9.51;100.00
8320;BME280;4197;42.130;24.746;2022-12-18T11:53:17;100692.03;;;9.53;100.00
8320;BME280;4197;42.130;24.746;2022-12-18T11:56:02;100689.66;;;9.60;100.00
8320;BME280;4197;42.130;24.746;2022-12-18T11:58:59;100689.38;;;9.70;100.00
8320;BME280;4197;42.130;24.746;2022-12-18T12:01:39;100691.25;;;9.70;100.00
8320;BME280;4197;42.130;24.746;2022-12-18T12:04:54;100696.06;;;9.81;100.00
8320;BME280;4197;42.130;24.746;2022-12-18T12:07:35;100694.94;;;9.74;100.00
8320;BME280;4197;42.130;24.746;2022-12-18T12:10:16;100702.75;;;9.84;100.00
8320;BME280;4197;42.130;24.746;2022-12-18T12:13:02;100699.09;;;9.89;100.00
8320;BME280;4197;42.130;24.746;2022-12-18T12:15:40;100698.13;;;9.85;100.00
8320;BME280;4197;42.130;24.746;2022-12-18T12:18:24;100701.63;;;9.94;100.00
8320;BME280;4197;42.130;24.746;2022-12-18T12:21:03;100697.50;;;9.88;100.00
8320;BME280;4197;42.130;24.746;2022-12-18T12:23:42;100695.28;;;9.90;100.00
8320;BME280;4197;42.130;24.746;2022-12-18T12:26:20;100693.66;;;9.89;100.00
8320;BME280;4197;42.130;24.746;2022-12-18T12:29:13;100699.41;;;9.78;100.00
8320;BME280;4197;42.130;24.746;2022-12-18T12:32:08;100707.22;;;9.89;100.00
8320;BME280;4197;42.130;24.746;2022-12-18T12:34:48;100717.41;;;9.83;100.00
8320;BME280;4197;42.130;24.746;2022-12-18T12:37:38;100714.41;;;9.85;100.00
8320;BME280;4197;42.130;24.746;2022-12-18T12:40:12;100719.81;;;9.85;100.00
8320;BME280;4197;42.130;24.746;2022-12-18T12:43:10;100725.69;;;9.78;100.00
8320;BME280;4197;42.130;24.746;2022-12-18T12:45:47;100721.53;;;9.72;100.00
8320;BME280;4197;42.130;24.746;2022-12-18T12:48:37;100734.78;;;9.73;100.00
8320;BME280;4197;42.130;24.746;2022-12-18T12:51:16;100741.28;;;9.72;100.00
8320;BME280;4197;42.130;24.746;2022-12-18T12:53:46;100736.84;;;9.68;100.00
8320;BME280;4197;42.130;24.746;2022-12-18T12:56:16;100747.50;;;9.64;100.00
8320;BME280;4197;42.130;24.746;2022-12-18T12:58:54;100755.16;;;9.62;100.00
8320;BME280;4197;42.130;24.746;2022-12-18T13:01:30;100762.16;;;9.63;100.00
8320;BME280;4197;42.130;24.746;2022-12-18T13:04:12;100756.09;;;9.57;100.00
8320;BME280;4197;42.130;24.746;2022-12-18T13:06:47;100764.69;;;9.51;100.00
8320;BME280;4197;42.130;24.746;2022-12-18T13:09:17;100763.69;;;9.47;100.00
8320;BME280;4197;42.130;24.746;2022-12-18T13:11:47;100758.44;;;9.42;100.00
8320;BME280;4197;42.130;24.746;2022-12-18T13:14:35;100772.75;;;9.42;100.00
8320;BME280;4197;42.130;24.746;2022-12-18T13:17:29;100773.56;;;9.43;100.00
8320;BME280;4197;42.130;24.746;2022-12-18T13:20:09;100769.88;;;9.38;100.00
8320;BME280;4197;42.130;24.746;2022-12-18T13:22:42;100789.28;;;9.32;100.00
8320;BME280;4197;42.130;24.746;2022-12-18T13:25:32;100785.31;;;9.29;100.00